Time;durP1;ratioP1;P1;durP2;ratioP2;P2;SDS_P1;SDS_P2;PMS_P1;PMS_P2;Temp;Humidity;BMP_temperature;BMP_pressure;BME280_temperature;BME280_humidity;BME280_pressure;Samples;Min_cycle;Max_cycle;Signal;HPM_P1;HPM_P2
2023/04/15 00:01:50;;;;;;;;;28.00;23.50;;;;;;;;4977796;28;45452;-79
2023/04/15 00:04:15;;;;;;;;;21.50;18.50;;;;;;;;4978409;28;45416;-79
2023/04/15 00:06:40;;;;;;;;;17.75;17.00;;;;;;;;4976880;28;45469;-78
2023/04/15 00:09:05;;;;;;;;;16.25;16.00;;;;;;;;4978004;28;45353;-79
2023/04/15 00:11:31;;;;;;;;;18.00;15.75;;;;;;;;4977766;28;45559;-79
2023/04/15 00:13:57;;;;;;;;;14.75;14.00;;;;;;;;4977816;28;45559;-78
2023/04/15 00:16:22;;;;;;;;;20.25;20.25;;;;;;;;4975599;28;46229;-79
2023/04/15 00:18:48;;;;;;;;;21.50;17.75;;;;;;;;4977779;28;45436;-79
2023/04/15 00:21:13;;;;;;;;;17.00;16.50;;;;;;;;4976572;28;45389;-79
2023/04/15 00:23:38;;;;;;;;;21.50;18.25;;;;;;;;4978399;28;45370;-79
2023/04/15 00:26:03;;;;;;;;;19.00;18.50;;;;;;;;4978238;28;45452;-79
2023/04/15 00:28:29;;;;;;;;;18.50;18.00;;;;;;;;4978272;28;45290;-79
2023/04/15 00:30:55;;;;;;;;;17.00;17.00;;;;;;;;4978424;28;45333;-78
2023/04/15 00:33:20;;;;;;;;;20.00;16.25;;;;;;;;4978438;28;45312;-79
2023/04/15 00:35:45;;;;;;;;;16.25;14.75;;;;;;;;4982268;28;47413;-77
2023/04/15 00:38:11;;;;;;;;;17.75;15.50;;;;;;;;4985037;28;45333;-79
2023/04/15 00:40:36;;;;;;;;;17.75;17.25;;;;;;;;4980697;28;45202;-78
2023/04/15 00:43:01;;;;;;;;;17.25;16.25;;;;;;;;4970627;28;45551;-79
2023/04/15 00:45:27;;;;;;;;;16.00;15.00;;;;;;;;4957944;28;46058;-78
2023/04/15 00:47:52;;;;;;;;;16.50;16.50;;;;;;;;4958418;28;45440;-79
2023/04/15 00:50:18;;;;;;;;;24.00;21.00;;;;;;;;4975541;28;45257;-78
2023/04/15 00:52:43;;;;;;;;;22.00;19.00;;;;;;;;4977778;28;45290;-77
2023/04/15 00:55:10;;;;;;;;;26.75;23.50;;;;;;;;4977083;28;45512;-77
2023/04/15 00:57:35;;;;;;;;;24.75;21.75;;;;;;;;4976315;28;45497;-77
2023/04/15 01:00:01;;;;;;;;;19.50;18.75;;;;;;;;4977549;28;45370;-78
2023/04/15 01:02:26;;;;;;;;;21.25;21.25;;;;;;;;4976957;28;45408;-79
2023/04/15 01:04:52;;;;;;;;;15.25;14.75;;;;;;;;4976853;28;45425;-81
2023/04/15 01:07:17;;;;;;;;;22.75;22.25;;;;;;;;4977347;28;45317;-80
2023/04/15 01:09:42;;;;;;;;;18.50;17.00;;;;;;;;4977701;28;45325;-78
2023/04/15 01:12:10;;;;;;;;;20.00;17.50;;;;;;;;4976619;28;45321;-79
2023/04/15 01:14:36;;;;;;;;;21.00;19.75;;;;;;;;4974052;28;46240;-78
2023/04/15 01:17:01;;;;;;;;;21.00;19.50;;;;;;;;4963708;28;45449;-78
2023/04/15 01:19:27;;;;;;;;;25.75;22.00;;;;;;;;4976513;28;45266;-77
2023/04/15 01:21:52;;;;;;;;;25.75;21.00;;;;;;;;4975837;28;45297;-77
2023/04/15 01:24:18;;;;;;;;;21.50;19.50;;;;;;;;4975854;28;45628;-76
2023/04/15 01:26:44;;;;;;;;;27.00;23.00;;;;;;;;4976057;28;45534;-77
2023/04/15 01:29:09;;;;;;;;;23.75;22.00;;;;;;;;4976390;28;45379;-77
2023/04/15 01:31:35;;;;;;;;;21.50;21.25;;;;;;;;4975849;28;45398;-76
2023/04/15 01:34:01;;;;;;;;;24.00;20.50;;;;;;;;4975442;28;46639;-76
2023/04/15 01:36:26;;;;;;;;;20.50;19.25;;;;;;;;4976074;28;45470;-78
2023/04/15 01:38:51;;;;;;;;;19.50;16.25;;;;;;;;4975995;28;45391;-78
2023/04/15 01:41:21;;;;;;;;;22.75;19.75;;;;;;;;4975954;28;45434;-79
2023/04/15 01:43:46;;;;;;;;;17.75;17.75;;;;;;;;4975749;28;46377;-77
2023/04/15 01:46:11;;;;;;;;;21.00;19.50;;;;;;;;4975482;28;45255;-75
2023/04/15 01:48:36;;;;;;;;;23.00;21.25;;;;;;;;4975700;28;45361;-74
2023/04/15 01:51:02;;;;;;;;;25.25;21.75;;;;;;;;4975926;28;45461;-75
2023/04/15 01:53:27;;;;;;;;;20.25;20.25;;;;;;;;4975578;28;45514;-76
2023/04/15 01:55:52;;;;;;;;;25.50;24.25;;;;;;;;4975562;28;45330;-75
2023/04/15 01:58:17;;;;;;;;;23.50;21.25;;;;;;;;4975533;28;45469;-75
2023/04/15 02:00:43;;;;;;;;;24.25;22.75;;;;;;;;4976017;28;45338;-77
2023/04/15 02:03:08;;;;;;;;;25.50;24.25;;;;;;;;4976116;28;45358;-75
2023/04/15 02:05:34;;;;;;;;;22.00;20.75;;;;;;;;4975287;28;45417;-76
2023/04/15 02:07:59;;;;;;;;;26.00;24.50;;;;;;;;4975525;28;45504;-76
2023/04/15 02:10:24;;;;;;;;;33.25;26.00;;;;;;;;4975315;28;45357;-76
2023/04/15 02:12:49;;;;;;;;;31.50;24.50;;;;;;;;4973555;28;48388;-77
2023/04/15 02:15:15;;;;;;;;;24.50;20.75;;;;;;;;4974800;28;45453;-78
2023/04/15 02:17:44;;;;;;;;;29.00;27.50;;;;;;;;4975491;28;45602;-78
2023/04/15 02:20:10;;;;;;;;;26.50;26.25;;;;;;;;4975481;28;45338;-78
2023/04/15 02:22:35;;;;;;;;;33.00;29.25;;;;;;;;4974798;28;45829;-78
2023/04/15 02:25:00;;;;;;;;;27.25;26.25;;;;;;;;4978134;28;45248;-78
2023/04/15 02:27:27;;;;;;;;;31.00;30.00;;;;;;;;4982281;28;45231;-79
2023/04/15 02:29:52;;;;;;;;;33.75;31.00;;;;;;;;4979146;28;45548;-79
2023/04/15 02:32:17;;;;;;;;;31.00;29.75;;;;;;;;4995601;28;45348;-79
2023/04/15 02:34:42;;;;;;;;;37.25;34.50;;;;;;;;5000081;28;45447;-78
2023/04/15 02:37:08;;;;;;;;;29.50;29.00;;;;;;;;4982320;28;45321;-79
2023/04/15 02:39:33;;;;;;;;;42.00;34.50;;;;;;;;4979516;28;45530;-78
2023/04/15 02:41:59;;;;;;;;;38.00;35.75;;;;;;;;4978614;28;46395;-77
2023/04/15 02:44:25;;;;;;;;;39.75;33.75;;;;;;;;4978691;28;45368;-78
2023/04/15 02:46:51;;;;;;;;;35.75;33.50;;;;;;;;4979046;28;46145;-78
2023/04/15 02:49:16;;;;;;;;;36.00;33.00;;;;;;;;4980346;28;45364;-79
2023/04/15 02:51:42;;;;;;;;;30.00;30.00;;;;;;;;4980404;28;45463;-77
2023/04/15 02:54:07;;;;;;;;;31.75;28.75;;;;;;;;4978539;28;45444;-78
2023/04/15 02:56:32;;;;;;;;;35.50;33.25;;;;;;;;4978692;28;45396;-78
2023/04/15 02:58:58;;;;;;;;;39.00;32.75;;;;;;;;4978620;28;45584;-78
2023/04/15 03:01:23;;;;;;;;;35.00;34.25;;;;;;;;4977072;28;48115;-79
2023/04/15 03:03:48;;;;;;;;;30.25;30.25;;;;;;;;4977843;28;45428;-79
2023/04/15 03:06:14;;;;;;;;;30.50;25.50;;;;;;;;4976930;28;45464;-79
2023/04/15 03:08:39;;;;;;;;;22.25;18.75;;;;;;;;4977651;28;45430;-80
2023/04/15 03:11:05;;;;;;;;;24.75;22.75;;;;;;;;4977651;28;45423;-79
2023/04/15 03:13:30;;;;;;;;;23.50;22.25;;;;;;;;4978109;28;45330;-80
2023/04/15 03:15:55;;;;;;;;;22.00;19.25;;;;;;;;4977890;28;45347;-80
2023/04/15 03:18:20;;;;;;;;;18.00;16.00;;;;;;;;4977876;28;45369;-80
2023/04/15 03:20:46;;;;;;;;;22.25;20.00;;;;;;;;4976439;28;46957;-80
2023/04/15 03:23:11;;;;;;;;;14.25;12.50;;;;;;;;4977459;28;45345;-80
2023/04/15 03:25:36;;;;;;;;;15.75;14.25;;;;;;;;4977608;28;45393;-80
2023/04/15 03:28:02;;;;;;;;;12.00;11.50;;;;;;;;4978199;28;45410;-80
2023/04/15 03:30:27;;;;;;;;;11.50;10.25;;;;;;;;4977304;28;46524;-81
2023/04/15 03:32:52;;;;;;;;;10.25;10.00;;;;;;;;4977933;28;45396;-80
2023/04/15 03:35:18;;;;;;;;;9.50;9.50;;;;;;;;4977866;28;45229;-79
2023/04/15 03:37:43;;;;;;;;;7.25;7.25;;;;;;;;4976386;28;45360;-80
2023/04/15 03:40:09;;;;;;;;;9.50;9.50;;;;;;;;4978264;28;45452;-79
2023/04/15 03:42:34;;;;;;;;;7.50;3.50;;;;;;;;4974684;28;45544;-80
2023/04/15 03:44:59;;;;;;;;;6.75;6.75;;;;;;;;4959686;28;45455;-80
2023/04/15 03:47:25;;;;;;;;;5.75;5.75;;;;;;;;4959603;28;45336;-80
2023/04/15 03:49:50;;;;;;;;;4.50;4.50;;;;;;;;4963861;28;46307;-80
2023/04/15 03:52:15;;;;;;;;;4.25;3.50;;;;;;;;4982750;28;45355;-78
2023/04/15 03:54:40;;;;;;;;;4.25;2.75;;;;;;;;4980389;28;45390;-80
2023/04/15 03:57:06;;;;;;;;;2.25;2.25;;;;;;;;4977663;28;45508;-80
2023/04/15 03:59:31;;;;;;;;;5.25;5.25;;;;;;;;4977343;28;45298;-80
2023/04/15 04:01:56;;;;;;;;;4.00;2.00;;;;;;;;4977535;28;45297;-79
2023/04/15 04:04:21;;;;;;;;;5.75;5.75;;;;;;;;4977442;28;45304;-79
2023/04/15 04:06:46;;;;;;;;;4.00;4.00;;;;;;;;4977518;28;45606;-79
2023/04/15 04:09:11;;;;;;;;;6.25;5.25;;;;;;;;4978282;28;45982;-80
2023/04/15 04:11:37;;;;;;;;;4.00;4.00;;;;;;;;4977532;28;45448;-79
2023/04/15 04:14:02;;;;;;;;;5.50;4.50;;;;;;;;4977209;28;45425;-80
2023/04/15 04:16:27;;;;;;;;;4.75;4.75;;;;;;;;4976381;28;45412;-79
2023/04/15 04:18:52;;;;;;;;;7.50;4.00;;;;;;;;4977443;28;47118;-79
2023/04/15 04:21:18;;;;;;;;;5.00;3.75;;;;;;;;4977275;28;45503;-78
2023/04/15 04:23:44;;;;;;;;;4.25;4.25;;;;;;;;4976106;28;45367;-78
2023/04/15 04:26:09;;;;;;;;;3.75;2.75;;;;;;;;4976921;28;45500;-78
2023/04/15 04:28:35;;;;;;;;;3.00;1.50;;;;;;;;4977295;28;46546;-78
2023/04/15 04:31:00;;;;;;;;;2.00;1.00;;;;;;;;4977264;28;45421;-79
2023/04/15 04:33:25;;;;;;;;;1.00;1.00;;;;;;;;4977046;28;45323;-79
2023/04/15 04:35:51;;;;;;;;;0.50;0.50;;;;;;;;4976695;28;45476;-80
2023/04/15 04:38:16;;;;;;;;;0.75;0.75;;;;;;;;4976406;28;46055;-80
2023/04/15 04:40:41;;;;;;;;;1.50;0.00;;;;;;;;4975431;28;45309;-79
2023/04/15 04:43:06;;;;;;;;;1.00;1.00;;;;;;;;4977173;28;45294;-80
2023/04/15 04:45:31;;;;;;;;;0.50;0.50;;;;;;;;4975596;28;45343;-79
2023/04/15 04:47:57;;;;;;;;;1.00;1.00;;;;;;;;4975017;28;45703;-79
2023/04/15 04:50:22;;;;;;;;;0.00;0.00;;;;;;;;4976182;28;45528;-79
2023/04/15 04:52:47;;;;;;;;;0.00;0.00;;;;;;;;4976891;28;45474;-79
2023/04/15 04:55:12;;;;;;;;;0.25;0.00;;;;;;;;4976352;28;45407;-79
2023/04/15 04:57:41;;;;;;;;;0.00;0.00;;;;;;;;4976132;28;45482;-79
2023/04/15 05:00:07;;;;;;;;;0.00;0.00;;;;;;;;4976246;28;45385;-79
2023/04/15 05:02:32;;;;;;;;;0.00;0.00;;;;;;;;4976432;28;45493;-79
2023/04/15 05:04:58;;;;;;;;;0.00;0.00;;;;;;;;4976121;28;45353;-79
2023/04/15 05:07:23;;;;;;;;;0.00;0.00;;;;;;;;4975780;28;46317;-79
2023/04/15 05:09:48;;;;;;;;;0.00;0.00;;;;;;;;4976353;28;45412;-79
2023/04/15 05:12:14;;;;;;;;;0.00;0.00;;;;;;;;4976265;28;45357;-79
2023/04/15 05:14:41;;;;;;;;;0.00;0.00;;;;;;;;4976400;28;45420;-79
2023/04/15 05:17:07;;;;;;;;;0.25;0.25;;;;;;;;4976083;28;46610;-79
2023/04/15 05:19:32;;;;;;;;;0.00;0.00;;;;;;;;4975868;28;45393;-80
2023/04/15 05:21:58;;;;;;;;;0.25;0.25;;;;;;;;4976017;28;45270;-79
2023/04/15 05:24:23;;;;;;;;;0.75;0.75;;;;;;;;4976216;28;45200;-80
2023/04/15 05:26:48;;;;;;;;;1.00;1.00;;;;;;;;4975385;28;47227;-80
2023/04/15 05:29:13;;;;;;;;;0.00;0.00;;;;;;;;4975815;28;45529;-78
2023/04/15 05:31:39;;;;;;;;;1.00;1.00;;;;;;;;4975788;28;45488;-78
2023/04/15 05:34:05;;;;;;;;;1.00;1.00;;;;;;;;4975711;28;45607;-79
2023/04/15 05:36:31;;;;;;;;;2.75;1.50;;;;;;;;4976122;28;45379;-77
2023/04/15 05:38:56;;;;;;;;;0.50;0.50;;;;;;;;4976007;28;45386;-79
2023/04/15 05:41:21;;;;;;;;;3.00;1.75;;;;;;;;4975609;28;45494;-79
2023/04/15 05:43:46;;;;;;;;;0.75;0.75;;;;;;;;4962899;28;45428;-79
2023/04/15 05:46:12;;;;;;;;;2.00;0.25;;;;;;;;4955840;28;46027;-79
2023/04/15 05:48:37;;;;;;;;;2.00;1.00;;;;;;;;4954272;28;45701;-79
2023/04/15 05:51:02;;;;;;;;;1.25;1.00;;;;;;;;4954067;28;45406;-79
2023/04/15 05:53:27;;;;;;;;;1.75;1.00;;;;;;;;4955476;28;45607;-78
2023/04/15 05:55:52;;;;;;;;;1.00;1.00;;;;;;;;4956232;28;46087;-80
2023/04/15 05:58:18;;;;;;;;;1.75;1.75;;;;;;;;4956201;28;45473;-79
2023/04/15 06:00:43;;;;;;;;;0.75;0.75;;;;;;;;4957126;28;45341;-79
2023/04/15 06:03:10;;;;;;;;;1.00;1.00;;;;;;;;4973589;28;45391;-79
2023/04/15 06:05:35;;;;;;;;;2.00;0.50;;;;;;;;4979248;28;45320;-79
2023/04/15 06:08:00;;;;;;;;;1.25;1.00;;;;;;;;4978929;28;45351;-79
2023/04/15 06:10:26;;;;;;;;;0.00;0.00;;;;;;;;4979664;28;45353;-80
2023/04/15 06:12:52;;;;;;;;;3.00;2.00;;;;;;;;4979551;28;45298;-80
2023/04/15 06:15:17;;;;;;;;;0.25;0.25;;;;;;;;4979085;28;47364;-79
2023/04/15 06:17:42;;;;;;;;;1.00;1.00;;;;;;;;4979039;28;45383;-79
2023/04/15 06:20:08;;;;;;;;;1.00;1.00;;;;;;;;4978847;28;45371;-80
2023/04/15 06:22:33;;;;;;;;;1.00;1.00;;;;;;;;4979167;28;45345;-79
2023/04/15 06:24:58;;;;;;;;;1.00;1.00;;;;;;;;4979296;28;46130;-80
2023/04/15 06:27:24;;;;;;;;;1.00;1.00;;;;;;;;4977403;28;45428;-79
2023/04/15 06:29:49;;;;;;;;;0.00;0.00;;;;;;;;4978912;28;45412;-80
2023/04/15 06:32:14;;;;;;;;;2.00;1.00;;;;;;;;4978466;28;45480;-78
2023/04/15 06:34:39;;;;;;;;;2.50;1.25;;;;;;;;4978805;28;46210;-79
2023/04/15 06:37:05;;;;;;;;;2.00;1.00;;;;;;;;4978862;28;45419;-80
2023/04/15 06:39:30;;;;;;;;;1.00;1.00;;;;;;;;4979109;28;45575;-79
2023/04/15 06:41:56;;;;;;;;;3.25;2.75;;;;;;;;4978720;28;45448;-79
2023/04/15 06:44:21;;;;;;;;;1.00;1.00;;;;;;;;4959940;28;48224;-80
2023/04/15 06:46:47;;;;;;;;;2.75;2.25;;;;;;;;4959385;28;45404;-80
2023/04/15 06:49:12;;;;;;;;;1.00;1.00;;;;;;;;4958629;28;45445;-79
2023/04/15 06:51:37;;;;;;;;;2.00;1.00;;;;;;;;4978162;28;45360;-79
2023/04/15 06:54:04;;;;;;;;;2.00;2.00;;;;;;;;4979981;28;45357;-80
2023/04/15 06:56:30;;;;;;;;;3.00;3.00;;;;;;;;4980944;28;45430;-79
2023/04/15 06:58:56;;;;;;;;;1.00;1.00;;;;;;;;4985310;28;45299;-78
2023/04/15 07:01:21;;;;;;;;;2.00;2.00;;;;;;;;4988893;28;45368;-79
2023/04/15 07:03:46;;;;;;;;;6.75;5.25;;;;;;;;4983474;28;46386;-80
2023/04/15 07:06:12;;;;;;;;;2.00;2.00;;;;;;;;4977762;28;45792;-80
2023/04/15 07:08:37;;;;;;;;;1.00;1.00;;;;;;;;4979085;28;45277;-80
2023/04/15 07:11:03;;;;;;;;;3.00;3.00;;;;;;;;4977688;28;45578;-80
2023/04/15 07:13:30;;;;;;;;;2.00;2.00;;;;;;;;4978224;28;46179;-80
2023/04/15 07:15:55;;;;;;;;;3.00;2.00;;;;;;;;4978401;28;45373;-80
2023/04/15 07:18:20;;;;;;;;;2.75;2.75;;;;;;;;4978667;28;45400;-81
2023/04/15 07:20:46;;;;;;;;;3.75;3.75;;;;;;;;4978288;28;45544;-80
2023/04/15 07:23:11;;;;;;;;;4.75;3.50;;;;;;;;4979099;28;46241;-80
2023/04/15 07:25:36;;;;;;;;;1.00;1.00;;;;;;;;4978581;28;45364;-81
2023/04/15 07:28:01;;;;;;;;;1.00;1.00;;;;;;;;4978667;28;45322;-80
2023/04/15 07:30:26;;;;;;;;;1.00;1.00;;;;;;;;4977861;28;45469;-80
2023/04/15 07:32:52;;;;;;;;;2.00;2.00;;;;;;;;4976691;28;46200;-80
2023/04/15 07:35:19;;;;;;;;;2.75;1.25;;;;;;;;4976114;28;45482;-80
2023/04/15 07:37:45;;;;;;;;;1.50;1.50;;;;;;;;4978092;28;45347;-79
2023/04/15 07:40:10;;;;;;;;;1.00;1.00;;;;;;;;4977840;28;45441;-80
2023/04/15 07:42:36;;;;;;;;;1.00;1.00;;;;;;;;4977507;28;45379;-79
2023/04/15 07:45:01;;;;;;;;;1.00;1.00;;;;;;;;4978133;28;45518;-80
2023/04/15 07:47:26;;;;;;;;;1.00;1.00;;;;;;;;4978849;28;45326;-79
2023/04/15 07:49:52;;;;;;;;;2.75;2.25;;;;;;;;4978124;28;45289;-79
2023/04/15 07:52:17;;;;;;;;;1.75;1.75;;;;;;;;4977612;28;46351;-80
2023/04/15 07:54:42;;;;;;;;;1.00;1.00;;;;;;;;4988206;28;45382;-79
2023/04/15 07:57:07;;;;;;;;;2.50;2.50;;;;;;;;4995721;28;45466;-80
2023/04/15 07:59:32;;;;;;;;;1.50;1.50;;;;;;;;4996316;28;45435;-81
2023/04/15 08:01:58;;;;;;;;;1.00;1.00;;;;;;;;4997456;28;46209;-81
2023/04/15 08:04:23;;;;;;;;;2.25;2.25;;;;;;;;4997278;28;45423;-80
2023/04/15 08:06:49;;;;;;;;;2.00;2.00;;;;;;;;4998120;28;45358;-81
2023/04/15 08:09:14;;;;;;;;;2.25;1.00;;;;;;;;4997492;28;45486;-80
2023/04/15 08:11:39;;;;;;;;;2.00;2.00;;;;;;;;4997489;28;45874;-80
2023/04/15 08:14:05;;;;;;;;;3.00;2.00;;;;;;;;4990095;28;45556;-80
2023/04/15 08:16:31;;;;;;;;;1.75;1.75;;;;;;;;4977745;28;45385;-79
2023/04/15 08:18:56;;;;;;;;;2.75;1.00;;;;;;;;4977869;28;45440;-78
2023/04/15 08:21:22;;;;;;;;;1.75;1.75;;;;;;;;4977000;28;45458;-79
2023/04/15 08:23:49;;;;;;;;;2.00;2.00;;;;;;;;4978685;28;45427;-79
2023/04/15 08:26:19;;;;;;;;;1.00;1.00;;;;;;;;4975949;28;45554;-77
2023/04/15 08:28:45;;;;;;;;;1.00;1.00;;;;;;;;4977532;28;45649;-80
2023/04/15 08:31:11;;;;;;;;;2.00;1.00;;;;;;;;4977397;28;47193;-80
2023/04/15 08:33:36;;;;;;;;;3.25;2.25;;;;;;;;4978008;28;45448;-80
2023/04/15 08:36:02;;;;;;;;;1.75;1.75;;;;;;;;4978241;28;45401;-80
2023/04/15 08:38:27;;;;;;;;;2.00;2.00;;;;;;;;4977909;28;45329;-79
2023/04/15 08:40:52;;;;;;;;;1.25;1.25;;;;;;;;4978113;28;45402;-80
2023/04/15 08:43:20;;;;;;;;;1.00;1.00;;;;;;;;4968190;28;45418;-79
2023/04/15 08:45:47;;;;;;;;;1.00;1.00;;;;;;;;4958566;28;45326;-79
2023/04/15 08:48:15;;;;;;;;;1.50;1.50;;;;;;;;4958454;28;45448;-80
2023/04/15 08:50:41;;;;;;;;;2.50;1.75;;;;;;;;4957637;28;46202;-80
2023/04/15 08:53:06;;;;;;;;;1.75;1.75;;;;;;;;4957062;28;45434;-79
2023/04/15 08:55:34;;;;;;;;;3.50;2.00;;;;;;;;4975337;28;45483;-79
2023/04/15 08:58:00;;;;;;;;;1.75;1.75;;;;;;;;4976644;28;45540;-81
2023/04/15 09:00:25;;;;;;;;;1.00;1.00;;;;;;;;4976622;28;47494;-80
2023/04/15 09:02:51;;;;;;;;;1.50;1.50;;;;;;;;4976280;28;45321;-80
2023/04/15 09:05:16;;;;;;;;;0.50;0.50;;;;;;;;4976417;28;45566;-81
2023/04/15 09:07:41;;;;;;;;;0.25;0.25;;;;;;;;4976225;28;45338;-79
2023/04/15 09:10:07;;;;;;;;;1.75;1.00;;;;;;;;4975811;28;46161;-79
2023/04/15 09:12:36;;;;;;;;;2.00;1.00;;;;;;;;4976302;28;45347;-80
2023/04/15 09:15:02;;;;;;;;;0.00;0.00;;;;;;;;4976578;28;45260;-79
2023/04/15 09:17:27;;;;;;;;;0.75;0.75;;;;;;;;4984069;28;45555;-79
2023/04/15 09:20:12;;;;;;;;;1.50;1.50;;;;;;;;4976397;28;47037;-79
2023/04/15 09:22:38;;;;;;;;;0.00;0.00;;;;;;;;4976089;28;45438;-80
2023/04/15 09:25:03;;;;;;;;;0.00;0.00;;;;;;;;4976251;28;45420;-80
2023/04/15 09:27:28;;;;;;;;;1.00;1.00;;;;;;;;4976334;28;45410;-79
2023/04/15 09:29:54;;;;;;;;;1.00;1.00;;;;;;;;4976320;28;46232;-79
2023/04/15 09:32:22;;;;;;;;;2.25;2.00;;;;;;;;4975013;28;45429;-79
2023/04/15 09:34:47;;;;;;;;;2.00;2.00;;;;;;;;4975410;28;45444;-80
2023/04/15 09:37:14;;;;;;;;;1.00;1.00;;;;;;;;4975752;28;45459;-79
2023/04/15 09:39:50;;;;;;;;;1.25;1.00;;;;;;;;4980442;28;46676;-79
2023/04/15 09:42:16;;;;;;;;;2.00;2.00;;;;;;;;4985582;28;45404;-79
2023/04/15 09:44:42;;;;;;;;;1.75;1.75;;;;;;;;4986426;28;45373;-80
2023/04/15 09:47:07;;;;;;;;;0.75;0.75;;;;;;;;4986499;28;45437;-79
2023/04/15 09:49:33;;;;;;;;;1.25;1.25;;;;;;;;4987692;28;45424;-79
2023/04/15 09:52:01;;;;;;;;;1.00;1.00;;;;;;;;4979707;28;45308;-80
2023/04/15 09:54:33;;;;;;;;;2.00;2.00;;;;;;;;4976802;28;45338;-79
2023/04/15 09:57:04;;;;;;;;;2.00;2.00;;;;;;;;4976817;28;45416;-79
2023/04/15 09:59:29;;;;;;;;;2.75;2.25;;;;;;;;4977272;28;45478;-79
2023/04/15 10:01:54;;;;;;;;;1.00;1.00;;;;;;;;4978574;28;45406;-79
2023/04/15 10:04:19;;;;;;;;;1.50;1.50;;;;;;;;4979032;28;45528;-79
2023/04/15 10:06:45;;;;;;;;;1.00;1.00;;;;;;;;4990932;28;45197;-79
2023/04/15 10:09:11;;;;;;;;;2.75;1.75;;;;;;;;4992849;28;45270;-80
2023/04/15 10:11:36;;;;;;;;;2.00;2.00;;;;;;;;4981781;28;45250;-80
2023/04/15 10:14:01;;;;;;;;;2.00;2.00;;;;;;;;4981111;28;45334;-80
2023/04/15 10:16:27;;;;;;;;;3.50;3.00;;;;;;;;4979437;28;45320;-79
2023/04/15 10:18:57;;;;;;;;;3.00;2.75;;;;;;;;4979196;28;45380;-80
2023/04/15 10:21:23;;;;;;;;;6.00;4.25;;;;;;;;4979354;28;45511;-80
2023/04/15 10:23:48;;;;;;;;;3.75;3.75;;;;;;;;4979503;28;45425;-79
2023/04/15 10:26:14;;;;;;;;;3.75;3.75;;;;;;;;4977547;28;45671;-80
2023/04/15 10:28:40;;;;;;;;;5.50;4.00;;;;;;;;4977840;28;45549;-80
2023/04/15 10:31:06;;;;;;;;;3.50;3.50;;;;;;;;4981608;28;45419;-80
2023/04/15 10:33:32;;;;;;;;;5.50;5.00;;;;;;;;4998895;28;45404;-80
2023/04/15 10:35:58;;;;;;;;;4.75;4.75;;;;;;;;4990836;28;45387;-80
2023/04/15 10:38:36;;;;;;;;;4.50;4.50;;;;;;;;4978861;28;46132;-80
2023/04/15 10:41:20;;;;;;;;;4.50;4.50;;;;;;;;4996179;28;45337;-79
2023/04/15 10:43:52;;;;;;;;;2.50;2.50;;;;;;;;4997635;28;45375;-80
2023/04/15 10:46:44;;;;;;;;;2.00;2.00;;;;;;;;4984115;28;45389;-80
2023/04/15 10:49:12;;;;;;;;;1.00;1.00;;;;;;;;4979228;28;45359;-80
2023/04/15 10:51:41;;;;;;;;;4.00;4.00;;;;;;;;4989885;28;45499;-79
2023/04/15 10:54:29;;;;;;;;;3.50;3.50;;;;;;;;4994687;28;45391;-78
2023/04/15 10:56:57;;;;;;;;;1.25;0.00;;;;;;;;4982258;28;45428;-80
2023/04/15 10:59:22;;;;;;;;;2.00;2.00;;;;;;;;4981582;28;46103;-78
2023/04/15 11:01:51;;;;;;;;;2.25;2.25;;;;;;;;4980524;28;45401;-78
2023/04/15 11:04:35;;;;;;;;;3.25;2.25;;;;;;;;4980185;28;45549;-79
2023/04/15 11:07:04;;;;;;;;;3.25;3.00;;;;;;;;4980746;28;45580;-80
2023/04/15 11:09:31;;;;;;;;;4.00;3.00;;;;;;;;4982019;28;46095;-78
2023/04/15 11:12:15;;;;;;;;;3.00;3.00;;;;;;;;4981428;28;45398;-80
2023/04/15 11:14:42;;;;;;;;;4.50;4.50;;;;;;;;4986963;28;45322;-79
2023/04/15 11:17:08;;;;;;;;;3.50;3.50;;;;;;;;4978772;28;45505;-79
2023/04/15 11:19:39;;;;;;;;;4.00;4.00;;;;;;;;4986282;28;45390;-79
2023/04/15 11:22:10;;;;;;;;;5.25;4.25;;;;;;;;4984626;28;45377;-79
2023/04/15 11:24:45;;;;;;;;;5.00;5.00;;;;;;;;4975642;28;45560;-80
2023/04/15 11:27:19;;;;;;;;;5.75;5.75;;;;;;;;4991129;28;45476;-79
2023/04/15 11:29:44;;;;;;;;;8.00;8.00;;;;;;;;4992776;28;46505;-79
2023/04/15 11:32:09;;;;;;;;;10.25;6.50;;;;;;;;4977489;28;45373;-79
2023/04/15 11:34:35;;;;;;;;;9.50;8.00;;;;;;;;4977747;28;45562;-79
2023/04/15 11:37:03;;;;;;;;;9.75;9.75;;;;;;;;4977704;28;45564;-79
2023/04/15 11:39:28;;;;;;;;;10.25;9.50;;;;;;;;4976373;28;47989;-79
2023/04/15 11:41:53;;;;;;;;;6.00;6.00;;;;;;;;4978664;28;45361;-79
2023/04/15 11:44:18;;;;;;;;;3.75;3.75;;;;;;;;4960407;28;45341;-79
2023/04/15 11:46:44;;;;;;;;;3.75;3.75;;;;;;;;4958468;28;45391;-79
2023/04/15 11:49:09;;;;;;;;;5.25;4.50;;;;;;;;4958564;28;45428;-80
2023/04/15 11:51:35;;;;;;;;;3.00;3.00;;;;;;;;4958974;28;45275;-78
2023/04/15 11:54:00;;;;;;;;;2.00;1.00;;;;;;;;4963220;28;45386;-79
2023/04/15 11:56:26;;;;;;;;;1.50;1.50;;;;;;;;4978860;28;45681;-78
2023/04/15 11:58:58;;;;;;;;;2.00;2.00;;;;;;;;4976029;28;46047;-79
2023/04/15 12:01:46;;;;;;;;;1.25;1.25;;;;;;;;4977517;28;45417;-79
2023/04/15 12:04:12;;;;;;;;;2.00;2.00;;;;;;;;4976735;28;45432;-80
2023/04/15 12:06:37;;;;;;;;;2.00;2.00;;;;;;;;4977280;28;45515;-79
2023/04/15 12:09:06;;;;;;;;;1.50;1.50;;;;;;;;4977667;28;45955;-79
2023/04/15 12:11:31;;;;;;;;;3.00;3.00;;;;;;;;4994033;28;45478;-79
2023/04/15 12:13:56;;;;;;;;;1.25;1.25;;;;;;;;4996508;28;45301;-80
2023/04/15 12:16:22;;;;;;;;;3.00;3.00;;;;;;;;4995236;28;45337;-79
2023/04/15 12:18:50;;;;;;;;;4.00;4.00;;;;;;;;4979156;28;45453;-80
2023/04/15 12:21:18;;;;;;;;;5.00;3.75;;;;;;;;4976651;28;45452;-79
2023/04/15 12:23:50;;;;;;;;;4.00;3.00;;;;;;;;4976932;28;45370;-80
2023/04/15 12:26:16;;;;;;;;;2.25;2.25;;;;;;;;4976364;28;45451;-80
2023/04/15 12:28:41;;;;;;;;;3.00;2.00;;;;;;;;4976363;28;46563;-80
2023/04/15 12:31:08;;;;;;;;;2.00;2.00;;;;;;;;4976129;28;45490;-79
2023/04/15 12:33:33;;;;;;;;;2.75;1.50;;;;;;;;4977793;28;45444;-80
2023/04/15 12:35:59;;;;;;;;;2.50;2.50;;;;;;;;4977642;28;45408;-79
2023/04/15 12:38:24;;;;;;;;;3.00;3.00;;;;;;;;4977164;28;45521;-80
2023/04/15 12:40:50;;;;;;;;;3.00;3.00;;;;;;;;4976584;28;45513;-80
2023/04/15 12:43:15;;;;;;;;;1.00;1.00;;;;;;;;4968282;28;45453;-80
2023/04/15 12:45:40;;;;;;;;;2.50;2.00;;;;;;;;4969484;28;45560;-79
2023/04/15 12:48:08;;;;;;;;;1.25;1.25;;;;;;;;4976530;28;47641;-80
2023/04/15 12:50:33;;;;;;;;;1.00;1.00;;;;;;;;4976914;28;45388;-80
2023/04/15 12:52:58;;;;;;;;;2.00;2.00;;;;;;;;4976520;28;45290;-81
2023/04/15 12:55:23;;;;;;;;;0.25;0.25;;;;;;;;4976470;28;45417;-79
2023/04/15 12:57:49;;;;;;;;;1.00;1.00;;;;;;;;4979959;28;45655;-79
2023/04/15 13:00:15;;;;;;;;;1.50;1.50;;;;;;;;4995320;28;45436;-80
2023/04/15 13:02:42;;;;;;;;;3.00;1.00;;;;;;;;4997173;28;45422;-79
2023/04/15 13:05:07;;;;;;;;;2.00;2.00;;;;;;;;4995604;28;45551;-80
2023/04/15 13:07:32;;;;;;;;;2.25;2.25;;;;;;;;4978146;28;45285;-78
2023/04/15 13:09:58;;;;;;;;;3.50;3.25;;;;;;;;4982075;28;45376;-78
2023/04/15 13:12:23;;;;;;;;;2.00;2.00;;;;;;;;4983754;28;45356;-79
2023/04/15 13:14:48;;;;;;;;;2.00;2.00;;;;;;;;4984657;28;44702;-80
2023/04/15 13:17:13;;;;;;;;;4.25;3.25;;;;;;;;4988764;28;45128;-79
2023/04/15 13:19:39;;;;;;;;;2.75;2.00;;;;;;;;4985458;28;45420;-80
2023/04/15 13:22:05;;;;;;;;;2.75;2.50;;;;;;;;4999751;28;45419;-79
2023/04/15 13:24:31;;;;;;;;;1.75;1.75;;;;;;;;4999455;28;45544;-78
2023/04/15 13:26:58;;;;;;;;;3.50;1.75;;;;;;;;4998825;28;45366;-80
2023/04/15 13:29:23;;;;;;;;;2.00;2.00;;;;;;;;5000719;28;45447;-80
2023/04/15 13:31:48;;;;;;;;;2.00;2.00;;;;;;;;5001350;28;45392;-79
2023/04/15 13:34:13;;;;;;;;;2.00;2.00;;;;;;;;5001267;28;45460;-79
2023/04/15 13:36:38;;;;;;;;;1.00;1.00;;;;;;;;4985882;28;46121;-79
2023/04/15 13:39:04;;;;;;;;;3.00;1.50;;;;;;;;4979630;28;45331;-79
2023/04/15 13:41:29;;;;;;;;;1.00;1.00;;;;;;;;4979532;28;45448;-80
2023/04/15 13:43:54;;;;;;;;;1.50;1.50;;;;;;;;4979519;28;45460;-79
2023/04/15 13:46:20;;;;;;;;;2.00;2.00;;;;;;;;4986745;28;46296;-79
2023/04/15 13:48:45;;;;;;;;;2.00;2.00;;;;;;;;4980521;28;45388;-79
2023/04/15 13:51:10;;;;;;;;;2.00;2.00;;;;;;;;4979576;28;45180;-79
2023/04/15 13:53:35;;;;;;;;;2.00;2.00;;;;;;;;4979732;28;45364;-79
2023/04/15 13:56:00;;;;;;;;;2.50;2.50;;;;;;;;4978127;28;46261;-79
2023/04/15 13:58:26;;;;;;;;;3.00;3.00;;;;;;;;4978985;28;45484;-79
2023/04/15 14:00:51;;;;;;;;;3.00;2.00;;;;;;;;4978734;28;45495;-79
2023/04/15 14:03:16;;;;;;;;;2.00;2.00;;;;;;;;4979063;28;45445;-79
2023/04/15 14:05:41;;;;;;;;;3.00;1.00;;;;;;;;4978228;28;45456;-79
2023/04/15 14:08:06;;;;;;;;;2.50;2.50;;;;;;;;4978561;28;45385;-79
2023/04/15 14:10:32;;;;;;;;;2.75;2.00;;;;;;;;4979305;28;45476;-78
2023/04/15 14:12:57;;;;;;;;;2.00;2.00;;;;;;;;4979120;28;45393;-79
2023/04/15 14:15:22;;;;;;;;;5.50;4.00;;;;;;;;4978146;28;45365;-79
2023/04/15 14:17:47;;;;;;;;;2.25;2.00;;;;;;;;4979870;28;45404;-80
2023/04/15 14:20:12;;;;;;;;;3.50;3.50;;;;;;;;4979161;28;45349;-79
2023/04/15 14:22:38;;;;;;;;;3.00;3.00;;;;;;;;4980906;28;45261;-79
2023/04/15 14:25:05;;;;;;;;;2.75;2.75;;;;;;;;4982604;28;45509;-80
2023/04/15 14:27:30;;;;;;;;;3.00;3.00;;;;;;;;4982800;28;45270;-79
2023/04/15 14:29:56;;;;;;;;;3.50;3.25;;;;;;;;4980815;28;45588;-78